createdAt,value
2023-05-10T00:01:57.363Z,98485.95
2023-05-10T00:04:30.172Z,98483.15
2023-05-10T00:06:58.949Z,98480.99
2023-05-10T00:09:27.433Z,98476.88
2023-05-10T00:11:55.648Z,98471.96
2023-05-10T00:14:23.917Z,98465.30
2023-05-10T00:16:53.646Z,98464.64
2023-05-10T00:19:22.232Z,98465.23
2023-05-10T00:21:50.184Z,98465.81
2023-05-10T00:24:18.419Z,98462.42
2023-05-10T00:26:46.741Z,98460.25
2023-05-10T00:29:16.145Z,98459.06
2023-05-10T00:31:44.429Z,98457.74
2023-05-10T00:34:12.990Z,98448.36
2023-05-10T00:36:41.127Z,98454.06
2023-05-10T00:39:10.053Z,98452.79
2023-05-10T00:41:38.373Z,98449.73
2023-05-10T00:44:07.121Z,98447.58
2023-05-10T00:46:36.037Z,98447.71
2023-05-10T00:49:05.480Z,98447.47
2023-05-10T00:51:33.991Z,98448.77
2023-05-10T00:54:02.370Z,98448.95
2023-05-10T00:56:31.125Z,98449.75
2023-05-10T00:58:59.280Z,98449.86
2023-05-10T01:01:27.635Z,98449.19
2023-05-10T01:04:01.310Z,98449.20
2023-05-10T01:06:30.302Z,98447.56
2023-05-10T01:08:58.476Z,98448.06
2023-05-10T01:11:51.986Z,98446.83
2023-05-10T01:14:21.757Z,98439.90
2023-05-10T01:16:54.638Z,98438.27
2023-05-10T01:19:30.316Z,98437.06
2023-05-10T01:22:34.295Z,98438.03
2023-05-10T01:25:30.924Z,98440.92
2023-05-10T01:28:35.776Z,98438.67
2023-05-10T01:31:25.812Z,98437.66
2023-05-10T01:34:16.667Z,98440.39
2023-05-10T01:37:15.313Z,98441.19
2023-05-10T01:39:52.223Z,98438.86
2023-05-10T01:42:28.895Z,98437.50
2023-05-10T01:45:15.296Z,98435.16
2023-05-10T01:47:46.270Z,98432.65
2023-05-10T01:50:23.112Z,98432.87
2023-05-10T01:52:57.110Z,98429.58
2023-05-10T01:55:32.867Z,98431.70
2023-05-10T01:58:11.590Z,98429.68
2023-05-10T02:00:47.665Z,98426.96
2023-05-10T02:03:19.576Z,98425.14
2023-05-10T02:05:52.085Z,98423.15
2023-05-10T02:08:44.832Z,98424.34
2023-05-10T02:11:15.870Z,98424.55
2023-05-10T02:13:46.500Z,98424.33
2023-05-10T02:16:16.244Z,98423.50
2023-05-10T02:18:46.736Z,98420.13
2023-05-10T02:21:18.699Z,98418.17
2023-05-10T02:23:50.257Z,98417.46
2023-05-10T02:26:23.553Z,98416.54
2023-05-10T02:28:56.642Z,98412.59
2023-05-10T02:31:26.104Z,98420.12
2023-05-10T02:34:14.775Z,98418.48
2023-05-10T02:36:45.113Z,98420.09
2023-05-10T02:39:15.578Z,98420.05
2023-05-10T02:41:48.361Z,98419.30
2023-05-10T02:44:22.437Z,98422.02
2023-05-10T02:46:51.676Z,98419.69
2023-05-10T02:49:20.238Z,98422.48
2023-05-10T02:51:58.019Z,98420.48
2023-05-10T02:54:42.747Z,98420.63
2023-05-10T03:01:19.010Z,98426.09
2023-05-10T03:03:47.032Z,98424.17
2023-05-10T03:06:15.634Z,98427.46
2023-05-10T03:08:47.289Z,98428.82
2023-05-10T03:11:36.854Z,98426.39
2023-05-10T03:14:38.555Z,98427.77
2023-05-10T03:17:34.247Z,98428.82
2023-05-10T03:20:12.169Z,98428.38
2023-05-10T03:22:51.972Z,98428.83
2023-05-10T03:25:23.731Z,98426.58
2023-05-10T03:27:56.972Z,98428.13
2023-05-10T03:30:27.721Z,98421.24
2023-05-10T03:32:56.448Z,98423.39
2023-05-10T03:35:25.555Z,98426.00
2023-05-10T03:37:54.320Z,98424.70
2023-05-10T03:40:22.803Z,98426.21
2023-05-10T03:42:51.172Z,98429.67
2023-05-10T03:45:19.568Z,98428.33
2023-05-10T03:47:47.960Z,98427.14
2023-05-10T03:50:16.702Z,98427.63
2023-05-10T03:52:46.129Z,98429.41
2023-05-10T03:55:14.138Z,98429.16
2023-05-10T03:57:42.366Z,98431.92
2023-05-10T04:00:11.284Z,98432.10
2023-05-10T04:02:46.532Z,98435.08
2023-05-10T04:05:35.054Z,98432.60
2023-05-10T04:08:05.269Z,98430.31
2023-05-10T04:10:33.759Z,98430.55
2023-05-10T04:13:02.449Z,98425.70
2023-05-10T04:15:30.574Z,98426.02
2023-05-10T04:17:58.978Z,98429.14
2023-05-10T04:20:27.978Z,98430.27
2023-05-10T04:22:56.263Z,98430.67
2023-05-10T04:25:24.834Z,98433.94
2023-05-10T04:28:25.481Z,98436.24
2023-05-10T04:30:53.786Z,98437.27
2023-05-10T04:33:22.774Z,98435.07
2023-05-10T04:35:50.974Z,98442.96
2023-05-10T04:38:19.023Z,98440.71
2023-05-10T04:40:47.373Z,98441.91
2023-05-10T04:43:16.039Z,98442.34
2023-05-10T04:45:44.828Z,98441.34
2023-05-10T04:48:13.718Z,98441.34
2023-05-10T04:50:42.917Z,98443.36
2023-05-10T04:53:11.829Z,98440.98
2023-05-10T04:55:40.654Z,98440.91
2023-05-10T04:58:08.767Z,98443.84
2023-05-10T05:00:37.650Z,98445.29
2023-05-10T05:03:06.981Z,98449.21
2023-05-10T05:10:18.927Z,98444.98
2023-05-10T05:12:47.881Z,98445.91
2023-05-10T05:15:18.514Z,98444.25
2023-05-10T05:17:46.525Z,98442.91
2023-05-10T05:20:16.391Z,98447.88
2023-05-10T05:22:44.858Z,98443.41
2023-05-10T05:25:13.780Z,98439.95
2023-05-10T05:27:42.543Z,98437.59
2023-05-10T05:30:11.247Z,98435.98
2023-05-10T05:32:42.935Z,98437.20
2023-05-10T05:35:12.792Z,98439.87
2023-05-10T05:37:43.529Z,98439.96
2023-05-10T05:40:15.831Z,98441.20
2023-05-10T05:43:38.513Z,98432.37
2023-05-10T05:46:07.571Z,98447.33
2023-05-10T05:48:36.426Z,98446.17
2023-05-10T05:51:07.096Z,98446.65
2023-05-10T05:53:39.848Z,98451.09
2023-05-10T05:56:09.476Z,98451.51
2023-05-10T05:58:37.729Z,98453.71
2023-05-10T06:01:06.004Z,98456.09
2023-05-10T06:03:34.616Z,98455.35
2023-05-10T06:06:02.958Z,98457.05
2023-05-10T06:08:31.335Z,98458.10
2023-05-10T06:10:59.620Z,98456.36
2023-05-10T06:13:33.932Z,98456.02
2023-05-10T06:16:04.288Z,98456.91
2023-05-10T06:18:33.757Z,98457.47
2023-05-10T06:21:02.639Z,98456.98
2023-05-10T06:27:52.580Z,98456.00
2023-05-10T06:30:24.979Z,98457.89
2023-05-10T06:32:53.158Z,98460.61
2023-05-10T06:35:21.686Z,98457.56
2023-05-10T06:37:50.683Z,98459.09
2023-05-10T06:45:00.158Z,98455.83
2023-05-10T06:47:28.241Z,98457.05
2023-05-10T06:49:57.719Z,98459.35
2023-05-10T06:52:26.100Z,98466.64
2023-05-10T06:55:02.572Z,98464.34
2023-05-10T06:57:32.077Z,98465.67
2023-05-10T07:00:09.076Z,98464.61
2023-05-10T07:02:37.692Z,98466.64
2023-05-10T07:05:19.660Z,98466.88
2023-05-10T07:07:48.821Z,98466.42
2023-05-10T07:10:17.320Z,98472.17
2023-05-10T07:12:45.714Z,98472.77
2023-05-10T07:15:13.942Z,98471.92
2023-05-10T07:17:44.074Z,98470.48
2023-05-10T07:20:14.672Z,98474.31
2023-05-10T07:22:42.978Z,98476.86
2023-05-10T07:25:12.203Z,98471.05
2023-05-10T07:27:40.108Z,98469.88
2023-05-10T07:30:09.239Z,98471.05
2023-05-10T07:32:37.864Z,98469.08
2023-05-10T07:35:08.022Z,98471.21
2023-05-10T07:37:36.321Z,98470.78
2023-05-10T07:40:05.207Z,98468.94
2023-05-10T07:42:34.286Z,98465.43
2023-05-10T07:45:02.307Z,98468.77
2023-05-10T07:47:30.336Z,98472.47
2023-05-10T07:50:00.978Z,98474.34
2023-05-10T07:52:29.450Z,98473.83
2023-05-10T07:59:09.267Z,98472.27
2023-05-10T08:01:38.830Z,98473.37
2023-05-10T08:04:07.126Z,98479.15
2023-05-10T08:06:39.265Z,98484.92
2023-05-10T08:09:07.715Z,98482.91
2023-05-10T08:11:36.630Z,98479.65
2023-05-10T08:14:05.014Z,98475.52
2023-05-10T08:16:35.369Z,98479.64
2023-05-10T08:19:05.868Z,98483.46
2023-05-10T08:21:34.863Z,98478.91
2023-05-10T08:24:04.158Z,98476.98
2023-05-10T08:26:35.801Z,98477.62
2023-05-10T08:29:04.242Z,98482.39
2023-05-10T08:31:32.344Z,98472.31
2023-05-10T08:34:04.984Z,98484.94
2023-05-10T08:36:33.707Z,98476.58
2023-05-10T08:39:02.203Z,98487.70
2023-05-10T08:41:37.142Z,98486.04
2023-05-10T08:44:09.925Z,98487.05
2023-05-10T08:46:41.469Z,98486.95
2023-05-10T08:49:32.235Z,98488.11
2023-05-10T08:52:24.644Z,98491.20
2023-05-10T08:54:53.526Z,98491.26
2023-05-10T08:57:22.401Z,98488.39
2023-05-10T08:59:50.578Z,98488.73
2023-05-10T09:02:22.559Z,98490.33
2023-05-10T09:04:52.112Z,98495.77
2023-05-10T09:07:21.258Z,98491.56
2023-05-10T09:09:50.072Z,98489.48
2023-05-10T09:12:17.932Z,98492.82
2023-05-10T09:14:48.008Z,98487.00
2023-05-10T09:17:16.050Z,98491.33
2023-05-10T09:19:46.610Z,98486.12
2023-05-10T09:22:14.857Z,98487.27
2023-05-10T09:24:48.381Z,98486.56
2023-05-10T09:27:16.763Z,98476.86
2023-05-10T09:29:44.939Z,98475.33
2023-05-10T09:33:03.100Z,98480.05
2023-05-10T09:35:37.392Z,98466.83
2023-05-10T09:38:06.087Z,98465.89
2023-05-10T09:40:34.131Z,98462.09
2023-05-10T09:43:08.470Z,98458.20
2023-05-10T09:45:38.962Z,98457.64
2023-05-10T09:48:08.231Z,98456.93
2023-05-10T09:50:36.789Z,98454.70
2023-05-10T09:53:07.581Z,98446.42
2023-05-10T09:55:50.535Z,98446.40
2023-05-10T09:58:18.560Z,98444.69
2023-05-10T10:00:52.812Z,98450.50
2023-05-10T10:03:22.522Z,98452.11
2023-05-10T10:05:51.626Z,98451.70
2023-05-10T10:08:20.619Z,98454.34
2023-05-10T10:10:48.818Z,98452.79
2023-05-10T10:13:18.485Z,98451.55
2023-05-10T10:15:49.253Z,98447.27
2023-05-10T10:18:19.022Z,98451.36
2023-05-10T10:20:47.455Z,98447.98
2023-05-10T10:23:17.580Z,98447.83
2023-05-10T10:30:48.220Z,98438.38
2023-05-10T10:33:34.753Z,98440.29
2023-05-10T10:36:05.388Z,98436.73
2023-05-10T10:38:49.003Z,98438.36
2023-05-10T10:42:09.932Z,98432.89
2023-05-10T10:44:43.125Z,98434.39
2023-05-10T10:47:26.828Z,98434.22
2023-05-10T10:50:01.330Z,98432.14
2023-05-10T10:52:36.487Z,98433.27
2023-05-10T10:55:12.417Z,98428.45
2023-05-10T10:57:53.630Z,98430.32
2023-05-10T11:00:29.957Z,98427.05
2023-05-10T11:03:00.176Z,98427.02
2023-05-10T11:05:28.789Z,98426.12
2023-05-10T11:08:00.433Z,98425.90
2023-05-10T11:10:28.812Z,98423.50
2023-05-10T11:13:12.495Z,98426.66
2023-05-10T11:15:49.044Z,98420.72
2023-05-10T11:18:21.639Z,98419.52
2023-05-10T11:20:53.663Z,98417.59
2023-05-10T11:27:28.196Z,98418.13
2023-05-10T11:29:57.180Z,98419.27
2023-05-10T11:32:25.432Z,98420.42
2023-05-10T11:35:19.180Z,98417.10
2023-05-10T11:37:50.615Z,98418.63
2023-05-10T11:40:18.933Z,98420.91
2023-05-10T11:42:49.026Z,98415.68
2023-05-10T11:45:17.500Z,98413.33
2023-05-10T11:47:45.865Z,98420.17
2023-05-10T11:50:14.035Z,98427.66
2023-05-10T11:52:42.330Z,98426.30
2023-05-10T11:55:11.289Z,98422.41
2023-05-10T11:57:44.227Z,98422.68
2023-05-10T12:00:13.433Z,98421.34
2023-05-10T12:02:48.632Z,98422.49
2023-05-10T12:05:17.580Z,98422.14
2023-05-10T12:07:45.838Z,98419.02
2023-05-10T12:10:16.758Z,98418.11
2023-05-10T12:12:52.617Z,98415.24
2023-05-10T12:15:25.048Z,98415.65
2023-05-10T12:17:53.413Z,98416.87
2023-05-10T12:20:23.966Z,98414.58
2023-05-10T12:22:57.738Z,98413.23
2023-05-10T12:25:37.113Z,98411.43
2023-05-10T12:28:11.285Z,98408.77
2023-05-10T12:30:40.675Z,98405.42
2023-05-10T12:33:17.843Z,98402.08
2023-05-10T12:35:55.859Z,98396.11
2023-05-10T12:38:37.019Z,98395.41
2023-05-10T12:41:07.323Z,98396.39
2023-05-10T12:43:36.939Z,98395.34
2023-05-10T12:46:11.457Z,98391.27
2023-05-10T12:48:40.948Z,98386.02
2023-05-10T12:51:29.260Z,98389.00
2023-05-10T12:53:57.413Z,98383.95
2023-05-10T12:56:26.419Z,98380.61
2023-05-10T12:58:54.824Z,98379.88
2023-05-10T13:01:23.460Z,98379.36
2023-05-10T13:03:52.247Z,98377.54
2023-05-10T13:07:09.931Z,98376.13
2023-05-10T13:09:38.608Z,98375.96
2023-05-10T13:12:08.738Z,98371.27
2023-05-10T13:14:38.552Z,98367.91
2023-05-10T13:17:06.588Z,98369.41
2023-05-10T13:19:34.881Z,98366.19
2023-05-10T13:22:03.182Z,98360.60
2023-05-10T13:24:31.365Z,98362.30
2023-05-10T13:26:59.461Z,98362.38
2023-05-10T13:29:27.499Z,98356.27
2023-05-10T13:31:56.032Z,98347.12
2023-05-10T13:34:25.291Z,98345.43
2023-05-10T13:36:56.908Z,98342.83
2023-05-10T13:39:25.170Z,98343.55
2023-05-10T13:41:55.727Z,98340.64
2023-05-10T13:44:24.841Z,98342.97
2023-05-10T13:46:53.094Z,98343.11
2023-05-10T13:49:22.724Z,98345.86
2023-05-10T13:51:50.773Z,98342.82
2023-05-10T13:54:21.689Z,98341.23
2023-05-10T13:56:49.929Z,98344.80
2023-05-10T13:59:17.891Z,98345.02
2023-05-10T14:01:46.420Z,98342.63
2023-05-10T14:04:14.765Z,98342.80
2023-05-10T14:06:43.198Z,98343.33
2023-05-10T14:09:11.521Z,98342.23
2023-05-10T14:11:43.614Z,98340.16
2023-05-10T14:15:01.456Z,98336.86
2023-05-10T14:17:29.625Z,98334.19
2023-05-10T14:19:58.779Z,98336.71
2023-05-10T14:22:27.070Z,98337.59
2023-05-10T14:24:55.188Z,98336.06
2023-05-10T14:27:24.155Z,98333.67
2023-05-10T14:29:52.233Z,98333.43
2023-05-10T14:32:20.361Z,98333.27
2023-05-10T14:34:48.586Z,98330.21
2023-05-10T14:37:17.609Z,98328.57
2023-05-10T14:39:45.694Z,98326.37
2023-05-10T14:42:13.811Z,98325.86
2023-05-10T14:44:41.812Z,98328.83
2023-05-10T14:47:11.865Z,98327.11
2023-05-10T14:49:57.996Z,98329.73
2023-05-10T14:52:52.048Z,98329.98
2023-05-10T14:55:20.531Z,98325.22
2023-05-10T14:57:51.283Z,98323.39
2023-05-10T15:00:20.948Z,98328.17
2023-05-10T15:02:50.119Z,98324.98
2023-05-10T15:05:18.967Z,98322.64
2023-05-10T15:07:47.521Z,98321.07
2023-05-10T15:10:15.820Z,98321.41
2023-05-10T15:12:44.000Z,98318.17
2023-05-10T15:15:12.065Z,98315.52
2023-05-10T15:17:40.072Z,98317.38
2023-05-10T15:20:09.001Z,98317.29
2023-05-10T15:22:37.071Z,98313.63
2023-05-10T15:25:05.641Z,98311.81
2023-05-10T15:27:33.807Z,98309.82
2023-05-10T15:30:02.224Z,98310.43
2023-05-10T15:32:30.304Z,98307.31
2023-05-10T15:34:59.175Z,98305.04
2023-05-10T15:37:31.788Z,98303.13
2023-05-10T15:40:06.580Z,98305.70
2023-05-10T15:42:34.586Z,98304.84
2023-05-10T15:45:02.671Z,98302.73
2023-05-10T15:47:31.807Z,98305.54
2023-05-10T15:50:00.506Z,98304.16
2023-05-10T15:52:29.012Z,98303.06
2023-05-10T15:54:59.019Z,98303.27
2023-05-10T15:57:27.199Z,98303.16
2023-05-10T15:59:56.415Z,98308.09
2023-05-10T16:02:24.624Z,98305.65
2023-05-10T16:04:53.396Z,98301.65
2023-05-10T16:07:21.959Z,98300.73
2023-05-10T16:09:50.151Z,98303.11
2023-05-10T16:12:18.672Z,98301.73
2023-05-10T16:14:47.182Z,98302.31
2023-05-10T16:17:15.491Z,98302.77
2023-05-10T16:19:43.750Z,98306.91
2023-05-10T16:22:11.929Z,98309.22
2023-05-10T16:24:40.178Z,98306.13
2023-05-10T16:27:08.912Z,98303.47
2023-05-10T16:29:37.166Z,98304.69
2023-05-10T16:32:05.806Z,98307.42
2023-05-10T16:34:34.584Z,98305.23
2023-05-10T16:37:02.502Z,98306.30
2023-05-10T16:39:31.318Z,98304.39
2023-05-10T16:41:59.370Z,98306.82
2023-05-10T16:53:18.766Z,98305.53
2023-05-10T16:55:47.712Z,98309.58
2023-05-10T16:58:21.533Z,98307.56
2023-05-10T17:00:49.954Z,98300.65
2023-05-10T17:03:18.705Z,98300.09
2023-05-10T17:05:46.856Z,98299.11
2023-05-10T17:08:15.016Z,98304.94
2023-05-10T17:10:43.213Z,98306.95
2023-05-10T17:13:11.213Z,98304.76
2023-05-10T17:15:39.800Z,98303.41
2023-05-10T17:18:08.539Z,98303.98
2023-05-10T17:20:36.858Z,98305.34
2023-05-10T17:23:04.955Z,98306.91
2023-05-10T17:25:53.714Z,98313.38
2023-05-10T17:28:22.052Z,98312.10
2023-05-10T17:30:58.401Z,98315.50
2023-05-10T17:33:26.501Z,98316.42
2023-05-10T17:35:55.724Z,98317.35
2023-05-10T17:38:25.317Z,98317.73
2023-05-10T17:40:53.725Z,98322.63
2023-05-10T17:43:22.008Z,98321.48
2023-05-10T17:45:50.084Z,98327.85
2023-05-10T17:48:18.193Z,98331.38
2023-05-10T17:50:46.508Z,98333.63
2023-05-10T17:53:16.564Z,98335.55
2023-05-10T17:55:45.133Z,98337.96
2023-05-10T17:58:13.321Z,98337.04
2023-05-10T18:00:41.473Z,98339.67
2023-05-10T18:03:11.946Z,98341.87
2023-05-10T18:05:40.063Z,98347.45
2023-05-10T18:08:08.864Z,98352.92
2023-05-10T18:10:39.991Z,98355.06
2023-05-10T18:13:09.459Z,98351.95
2023-05-10T18:15:37.624Z,98360.23
2023-05-10T18:18:05.953Z,98366.74
2023-05-10T18:20:34.803Z,98367.52
2023-05-10T18:23:03.443Z,98370.77
2023-05-10T18:25:31.510Z,98376.05
2023-05-10T18:27:59.710Z,98375.70
2023-05-10T18:30:27.975Z,98381.03
2023-05-10T18:32:56.284Z,98384.07
2023-05-10T18:35:24.504Z,98389.11
2023-05-10T18:37:52.670Z,98392.73
2023-05-10T18:40:21.167Z,98396.30
2023-05-10T18:42:50.815Z,98395.55
2023-05-10T18:45:19.519Z,98400.40
2023-05-10T18:47:48.726Z,98403.38
2023-05-10T18:50:18.864Z,98404.95
2023-05-10T18:52:47.087Z,98411.83
2023-05-10T18:55:15.471Z,98413.20
2023-05-10T18:57:45.388Z,98415.02
2023-05-10T19:00:14.573Z,98415.80
2023-05-10T19:02:43.036Z,98415.86
2023-05-10T19:05:11.222Z,98419.14
2023-05-10T19:07:47.029Z,98419.30
2023-05-10T19:10:15.114Z,98424.26
2023-05-10T19:12:43.226Z,98424.17
2023-05-10T19:15:11.766Z,98427.09
2023-05-10T19:17:42.080Z,98428.13
2023-05-10T19:20:30.937Z,98429.00
2023-05-10T19:23:09.869Z,98429.98
2023-05-10T19:25:42.526Z,98433.71
2023-05-10T19:28:19.337Z,98437.06
2023-05-10T19:30:47.406Z,98437.90
2023-05-10T19:33:15.561Z,98436.79
2023-05-10T19:35:43.732Z,98436.23
2023-05-10T19:38:13.012Z,98435.63
2023-05-10T19:40:41.192Z,98443.05
2023-05-10T19:43:09.478Z,98443.41
2023-05-10T19:45:37.770Z,98440.36
2023-05-10T19:48:06.625Z,98437.95
2023-05-10T19:50:34.978Z,98441.67
2023-05-10T19:53:03.113Z,98440.67
2023-05-10T19:55:32.812Z,98440.86
2023-05-10T19:58:00.961Z,98442.37
2023-05-10T20:00:29.387Z,98440.09
2023-05-10T20:02:59.134Z,98443.15
2023-05-10T20:05:27.442Z,98440.34
2023-05-10T20:07:55.630Z,98443.32
2023-05-10T20:10:25.714Z,98440.98
2023-05-10T20:12:59.051Z,98437.36
2023-05-10T20:15:30.012Z,98437.80
2023-05-10T20:17:58.303Z,98435.64
2023-05-10T20:20:26.675Z,98435.21
2023-05-10T20:22:54.809Z,98440.09
2023-05-10T20:25:23.029Z,98434.03
2023-05-10T20:27:51.652Z,98435.12
2023-05-10T20:30:20.024Z,98436.09
2023-05-10T20:32:48.588Z,98436.57
2023-05-10T20:35:16.942Z,98437.52
2023-05-10T20:37:50.720Z,98446.14
2023-05-10T20:40:19.095Z,98445.96
2023-05-10T20:42:47.956Z,98444.11
2023-05-10T20:45:16.247Z,98447.23
2023-05-10T20:47:44.492Z,98448.15
2023-05-10T20:50:12.697Z,98450.08
2023-05-10T20:52:40.850Z,98450.88
2023-05-10T20:55:09.746Z,98455.79
2023-05-10T20:57:37.994Z,98454.10
2023-05-10T21:00:09.593Z,98455.56
2023-05-10T21:02:38.230Z,98454.25
2023-05-10T21:05:07.240Z,98453.45
2023-05-10T21:18:06.707Z,98448.64
2023-05-10T21:20:34.876Z,98446.19
2023-05-10T21:23:03.555Z,98448.52
2023-05-10T21:25:32.407Z,98452.46
2023-05-10T21:28:01.013Z,98452.77
2023-05-10T21:30:29.211Z,98452.23
2023-05-10T21:33:00.014Z,98453.05
2023-05-10T21:39:12.542Z,98455.72
2023-05-10T21:41:40.826Z,98456.16
2023-05-10T21:44:09.449Z,98457.65
2023-05-10T21:46:37.872Z,98455.25
2023-05-10T21:49:06.038Z,98457.94
2023-05-10T21:51:35.076Z,98458.29
2023-05-10T21:54:03.415Z,98457.44
2023-05-10T21:56:31.444Z,98457.45
2023-05-10T21:58:59.700Z,98453.60
2023-05-10T22:01:29.178Z,98447.71
2023-05-10T22:03:57.257Z,98450.75
2023-05-10T22:06:25.600Z,98452.33
2023-05-10T22:08:53.933Z,98454.17
2023-05-10T22:11:22.122Z,98450.77
2023-05-10T22:13:50.108Z,98454.78
2023-05-10T22:16:18.526Z,98454.55
2023-05-10T22:18:46.804Z,98452.65
2023-05-10T22:21:15.027Z,98456.41
2023-05-10T22:23:42.953Z,98456.86
2023-05-10T22:26:13.991Z,98455.30
2023-05-10T22:28:43.205Z,98455.23
2023-05-10T22:35:19.249Z,98454.37
2023-05-10T22:37:47.466Z,98456.57
2023-05-10T22:40:15.642Z,98457.01
2023-05-10T22:42:44.019Z,98456.02
2023-05-10T22:45:12.453Z,98452.40
2023-05-10T22:47:41.186Z,98449.84
2023-05-10T22:50:10.379Z,98449.61
2023-05-10T22:52:39.440Z,98448.74
2023-05-10T22:55:09.342Z,98448.29
2023-05-10T23:01:45.652Z,98448.20
2023-05-10T23:04:13.727Z,98448.14
2023-05-10T23:06:41.792Z,98453.45
2023-05-10T23:09:12.719Z,98454.86
2023-05-10T23:11:41.991Z,98453.20
2023-05-10T23:14:10.457Z,98450.98
2023-05-10T23:16:38.720Z,98451.04
2023-05-10T23:19:10.310Z,98453.10
2023-05-10T23:21:38.685Z,98452.59
2023-05-10T23:24:08.967Z,98451.31
2023-05-10T23:26:37.338Z,98448.65
2023-05-10T23:29:05.741Z,98446.85
2023-05-10T23:31:33.855Z,98441.88
2023-05-10T23:34:04.131Z,98439.70
2023-05-10T23:36:33.834Z,98440.52
2023-05-10T23:39:02.166Z,98438.16
2023-05-10T23:41:30.276Z,98435.18
2023-05-10T23:43:58.369Z,98432.23
2023-05-10T23:46:26.696Z,98432.27
2023-05-10T23:49:14.583Z,98431.80
2023-05-10T23:51:42.885Z,98432.42
2023-05-10T23:54:11.310Z,98432.71
2023-05-10T23:56:39.398Z,98431.46
2023-05-10T23:59:07.633Z,98434.75
